Aviation Digital Data Service (ADDS)

Output produced by METARs form (1607 UTC 26 April 2019)
found at http://www.aviationweather.gov/metar/data/
 
TNCM 261127Z 2612/2712 08010KT P6SM SCT020